sensor_id;sensor_type;location;lat;lon;timestamp;temperature;humidity
10848;DHT22;5477;48.806;9.154;2023-04-03T00:01:13;4.50;99.90
10848;DHT22;5477;48.806;9.154;2023-04-03T00:03:42;4.50;99.90
10848;DHT22;5477;48.806;9.154;2023-04-03T00:06:11;4.50;99.90
10848;DHT22;5477;48.806;9.154;2023-04-03T00:08:40;4.50;99.90
10848;DHT22;5477;48.806;9.154;2023-04-03T00:11:09;4.50;99.90
10848;DHT22;5477;48.806;9.154;2023-04-03T00:13:39;4.50;99.90
10848;DHT22;5477;48.806;9.154;2023-04-03T00:16:07;4.50;99.90
10848;DHT22;5477;48.806;9.154;2023-04-03T00:18:36;4.40;99.90
10848;DHT22;5477;48.806;9.154;2023-04-03T00:21:05;4.50;99.90
10848;DHT22;5477;48.806;9.154;2023-04-03T00:23:33;4.50;99.90
10848;DHT22;5477;48.806;9.154;2023-04-03T00:26:01;4.50;99.90
10848;DHT22;5477;48.806;9.154;2023-04-03T00:28:29;4.50;99.90
10848;DHT22;5477;48.806;9.154;2023-04-03T00:30:59;4.50;99.90
10848;DHT22;5477;48.806;9.154;2023-04-03T00:33:27;4.50;99.90
10848;DHT22;5477;48.806;9.154;2023-04-03T00:35:55;4.50;99.90
10848;DHT22;5477;48.806;9.154;2023-04-03T00:38:23;4.60;99.90
10848;DHT22;5477;48.806;9.154;2023-04-03T00:40:51;4.60;99.90
10848;DHT22;5477;48.806;9.154;2023-04-03T00:43:21;4.60;99.90
10848;DHT22;5477;48.806;9.154;2023-04-03T00:45:51;4.60;99.90
10848;DHT22;5477;48.806;9.154;2023-04-03T00:48:24;4.50;99.90
10848;DHT22;5477;48.806;9.154;2023-04-03T00:50:54;4.50;99.90
10848;DHT22;5477;48.806;9.154;2023-04-03T00:53:24;4.60;99.90
10848;DHT22;5477;48.806;9.154;2023-04-03T00:55:54;4.60;99.90
10848;DHT22;5477;48.806;9.154;2023-04-03T00:58:28;4.50;99.90
10848;DHT22;5477;48.806;9.154;2023-04-03T01:01:05;4.50;99.90
10848;DHT22;5477;48.806;9.154;2023-04-03T01:03:36;4.50;99.90
10848;DHT22;5477;48.806;9.154;2023-04-03T01:06:05;4.40;99.90
10848;DHT22;5477;48.806;9.154;2023-04-03T01:08:33;4.40;99.90
10848;DHT22;5477;48.806;9.154;2023-04-03T01:11:03;4.40;99.90
10848;DHT22;5477;48.806;9.154;2023-04-03T01:13:32;4.40;99.90
10848;DHT22;5477;48.806;9.154;2023-04-03T01:16:02;4.30;99.90
10848;DHT22;5477;48.806;9.154;2023-04-03T01:18:32;4.30;99.90
10848;DHT22;5477;48.806;9.154;2023-04-03T01:21:26;4.30;99.90
10848;DHT22;5477;48.806;9.154;2023-04-03T01:24:15;4.30;99.90
10848;DHT22;5477;48.806;9.154;2023-04-03T01:26:46;4.20;99.90
10848;DHT22;5477;48.806;9.154;2023-04-03T01:29:14;4.20;99.90
10848;DHT22;5477;48.806;9.154;2023-04-03T01:31:47;4.20;99.90
10848;DHT22;5477;48.806;9.154;2023-04-03T01:34:16;4.20;99.90
10848;DHT22;5477;48.806;9.154;2023-04-03T01:36:44;4.20;99.90
10848;DHT22;5477;48.806;9.154;2023-04-03T01:39:12;4.20;99.90
10848;DHT22;5477;48.806;9.154;2023-04-03T01:41:40;4.20;99.90
10848;DHT22;5477;48.806;9.154;2023-04-03T01:44:14;4.20;99.90
10848;DHT22;5477;48.806;9.154;2023-04-03T01:46:42;4.20;99.90
10848;DHT22;5477;48.806;9.154;2023-04-03T01:49:12;4.20;99.90
10848;DHT22;5477;48.806;9.154;2023-04-03T01:51:40;4.20;99.90
10848;DHT22;5477;48.806;9.154;2023-04-03T01:54:08;4.30;99.90
10848;DHT22;5477;48.806;9.154;2023-04-03T01:56:36;4.30;99.90
10848;DHT22;5477;48.806;9.154;2023-04-03T01:59:05;4.20;99.90
10848;DHT22;5477;48.806;9.154;2023-04-03T02:01:33;4.20;99.90
10848;DHT22;5477;48.806;9.154;2023-04-03T02:04:01;4.20;99.90
10848;DHT22;5477;48.806;9.154;2023-04-03T02:06:31;4.20;99.90
10848;DHT22;5477;48.806;9.154;2023-04-03T02:08:59;4.10;99.90
10848;DHT22;5477;48.806;9.154;2023-04-03T02:11:27;4.10;99.90
10848;DHT22;5477;48.806;9.154;2023-04-03T02:13:55;4.10;99.90
10848;DHT22;5477;48.806;9.154;2023-04-03T02:16:23;4.10;99.90
10848;DHT22;5477;48.806;9.154;2023-04-03T02:18:51;4.20;99.90
10848;DHT22;5477;48.806;9.154;2023-04-03T02:21:19;4.20;99.90
10848;DHT22;5477;48.806;9.154;2023-04-03T02:23:49;4.20;99.90
10848;DHT22;5477;48.806;9.154;2023-04-03T02:26:18;4.20;99.90
10848;DHT22;5477;48.806;9.154;2023-04-03T02:28:46;4.10;99.90
10848;DHT22;5477;48.806;9.154;2023-04-03T02:31:14;4.10;99.90
10848;DHT22;5477;48.806;9.154;2023-04-03T02:33:45;4.10;99.90
10848;DHT22;5477;48.806;9.154;2023-04-03T02:36:15;4.10;99.90
10848;DHT22;5477;48.806;9.154;2023-04-03T02:38:51;4.10;99.90
10848;DHT22;5477;48.806;9.154;2023-04-03T02:41:19;4.10;99.90
10848;DHT22;5477;48.806;9.154;2023-04-03T02:43:49;4.10;99.90
10848;DHT22;5477;48.806;9.154;2023-04-03T02:46:17;4.10;99.90
10848;DHT22;5477;48.806;9.154;2023-04-03T02:48:45;4.20;99.90
10848;DHT22;5477;48.806;9.154;2023-04-03T02:51:13;4.20;99.90
10848;DHT22;5477;48.806;9.154;2023-04-03T02:53:41;4.30;99.90
10848;DHT22;5477;48.806;9.154;2023-04-03T02:56:16;4.20;99.90
10848;DHT22;5477;48.806;9.154;2023-04-03T02:58:44;4.20;99.90
10848;DHT22;5477;48.806;9.154;2023-04-03T03:01:13;4.30;99.90
10848;DHT22;5477;48.806;9.154;2023-04-03T03:03:41;4.20;99.90
10848;DHT22;5477;48.806;9.154;2023-04-03T03:06:11;4.20;99.90
10848;DHT22;5477;48.806;9.154;2023-04-03T03:08:40;4.20;99.90
10848;DHT22;5477;48.806;9.154;2023-04-03T03:11:09;4.20;99.90
10848;DHT22;5477;48.806;9.154;2023-04-03T03:13:38;4.20;99.90
10848;DHT22;5477;48.806;9.154;2023-04-03T03:16:07;4.20;99.90
10848;DHT22;5477;48.806;9.154;2023-04-03T03:18:35;4.10;99.90
10848;DHT22;5477;48.806;9.154;2023-04-03T03:21:04;4.10;99.90
10848;DHT22;5477;48.806;9.154;2023-04-03T03:23:32;4.20;99.90
10848;DHT22;5477;48.806;9.154;2023-04-03T03:26:03;4.20;99.90
10848;DHT22;5477;48.806;9.154;2023-04-03T03:28:34;4.20;99.90
10848;DHT22;5477;48.806;9.154;2023-04-03T03:31:05;4.20;99.90
10848;DHT22;5477;48.806;9.154;2023-04-03T03:33:36;4.20;99.90
10848;DHT22;5477;48.806;9.154;2023-04-03T03:36:04;4.20;99.90
10848;DHT22;5477;48.806;9.154;2023-04-03T03:38:33;4.20;99.90
10848;DHT22;5477;48.806;9.154;2023-04-03T03:41:01;4.10;99.90
10848;DHT22;5477;48.806;9.154;2023-04-03T03:43:32;4.10;99.90
10848;DHT22;5477;48.806;9.154;2023-04-03T03:46:00;4.10;99.90
10848;DHT22;5477;48.806;9.154;2023-04-03T03:48:29;4.10;99.90
10848;DHT22;5477;48.806;9.154;2023-04-03T03:50:57;4.10;99.90
10848;DHT22;5477;48.806;9.154;2023-04-03T03:53:30;4.10;99.90
10848;DHT22;5477;48.806;9.154;2023-04-03T03:56:03;4.10;99.90
10848;DHT22;5477;48.806;9.154;2023-04-03T03:58:33;4.10;99.90
10848;DHT22;5477;48.806;9.154;2023-04-03T04:01:02;4.10;99.90
10848;DHT22;5477;48.806;9.154;2023-04-03T04:03:32;4.10;99.90
10848;DHT22;5477;48.806;9.154;2023-04-03T04:06:01;4.10;99.90
10848;DHT22;5477;48.806;9.154;2023-04-03T04:08:30;4.10;99.90
10848;DHT22;5477;48.806;9.154;2023-04-03T04:10:58;4.10;99.90
10848;DHT22;5477;48.806;9.154;2023-04-03T04:13:26;4.10;99.90
10848;DHT22;5477;48.806;9.154;2023-04-03T04:15:54;4.00;99.90
10848;DHT22;5477;48.806;9.154;2023-04-03T04:18:22;4.10;99.90
10848;DHT22;5477;48.806;9.154;2023-04-03T04:20:52;4.10;99.90
10848;DHT22;5477;48.806;9.154;2023-04-03T04:23:21;4.10;99.90
10848;DHT22;5477;48.806;9.154;2023-04-03T04:25:51;4.10;99.90
10848;DHT22;5477;48.806;9.154;2023-04-03T04:28:20;4.10;99.90
10848;DHT22;5477;48.806;9.154;2023-04-03T04:30:51;4.20;99.90
10848;DHT22;5477;48.806;9.154;2023-04-03T04:33:20;4.20;99.90
10848;DHT22;5477;48.806;9.154;2023-04-03T04:35:49;4.20;99.90
10848;DHT22;5477;48.806;9.154;2023-04-03T04:38:21;4.20;99.90
10848;DHT22;5477;48.806;9.154;2023-04-03T04:40:51;4.20;99.90
10848;DHT22;5477;48.806;9.154;2023-04-03T04:43:20;4.20;99.90
10848;DHT22;5477;48.806;9.154;2023-04-03T04:46:00;4.20;99.90
10848;DHT22;5477;48.806;9.154;2023-04-03T04:48:31;4.20;99.90
10848;DHT22;5477;48.806;9.154;2023-04-03T04:50:59;4.20;99.90
10848;DHT22;5477;48.806;9.154;2023-04-03T04:53:29;4.20;99.90
10848;DHT22;5477;48.806;9.154;2023-04-03T04:55:57;4.20;99.90
10848;DHT22;5477;48.806;9.154;2023-04-03T04:58:26;4.20;99.90
10848;DHT22;5477;48.806;9.154;2023-04-03T05:00:58;4.30;99.90
10848;DHT22;5477;48.806;9.154;2023-04-03T05:03:28;4.30;99.90
10848;DHT22;5477;48.806;9.154;2023-04-03T05:05:56;4.30;99.90
10848;DHT22;5477;48.806;9.154;2023-04-03T05:08:25;4.30;99.90
10848;DHT22;5477;48.806;9.154;2023-04-03T05:10:55;4.40;99.90
10848;DHT22;5477;48.806;9.154;2023-04-03T05:13:25;4.40;99.90
10848;DHT22;5477;48.806;9.154;2023-04-03T05:15:55;4.40;99.90
10848;DHT22;5477;48.806;9.154;2023-04-03T05:18:23;4.40;99.90
10848;DHT22;5477;48.806;9.154;2023-04-03T05:20:55;4.40;99.90
10848;DHT22;5477;48.806;9.154;2023-04-03T05:23:24;4.40;99.90
10848;DHT22;5477;48.806;9.154;2023-04-03T05:25:55;4.40;99.90
10848;DHT22;5477;48.806;9.154;2023-04-03T05:28:23;4.40;99.90
10848;DHT22;5477;48.806;9.154;2023-04-03T05:30:53;4.40;99.90
10848;DHT22;5477;48.806;9.154;2023-04-03T05:33:23;4.40;99.90
10848;DHT22;5477;48.806;9.154;2023-04-03T05:35:55;4.30;99.90
10848;DHT22;5477;48.806;9.154;2023-04-03T05:38:26;4.40;99.90
10848;DHT22;5477;48.806;9.154;2023-04-03T05:40:57;4.30;99.90
10848;DHT22;5477;48.806;9.154;2023-04-03T05:43:26;4.30;99.90
10848;DHT22;5477;48.806;9.154;2023-04-03T05:45:54;4.20;99.90
10848;DHT22;5477;48.806;9.154;2023-04-03T05:48:25;4.30;99.90
10848;DHT22;5477;48.806;9.154;2023-04-03T05:50:53;4.30;99.90
10848;DHT22;5477;48.806;9.154;2023-04-03T05:53:27;4.30;99.90
10848;DHT22;5477;48.806;9.154;2023-04-03T05:56:00;4.30;99.90
10848;DHT22;5477;48.806;9.154;2023-04-03T05:58:31;4.30;99.90
10848;DHT22;5477;48.806;9.154;2023-04-03T06:01:00;4.20;99.90
10848;DHT22;5477;48.806;9.154;2023-04-03T06:03:28;4.30;99.90
10848;DHT22;5477;48.806;9.154;2023-04-03T06:05:57;4.30;99.90
10848;DHT22;5477;48.806;9.154;2023-04-03T06:08:25;4.30;99.90
10848;DHT22;5477;48.806;9.154;2023-04-03T06:10:53;4.30;99.90
10848;DHT22;5477;48.806;9.154;2023-04-03T06:13:22;4.30;99.90
10848;DHT22;5477;48.806;9.154;2023-04-03T06:15:51;4.30;99.90
10848;DHT22;5477;48.806;9.154;2023-04-03T06:18:19;4.30;99.90
10848;DHT22;5477;48.806;9.154;2023-04-03T06:20:47;4.30;99.90
10848;DHT22;5477;48.806;9.154;2023-04-03T06:23:15;4.30;99.90
10848;DHT22;5477;48.806;9.154;2023-04-03T06:25:43;4.30;99.90
10848;DHT22;5477;48.806;9.154;2023-04-03T06:28:11;4.20;99.90
10848;DHT22;5477;48.806;9.154;2023-04-03T06:30:41;4.20;99.90
10848;DHT22;5477;48.806;9.154;2023-04-03T06:33:09;4.20;99.90
10848;DHT22;5477;48.806;9.154;2023-04-03T06:35:37;4.20;99.90
10848;DHT22;5477;48.806;9.154;2023-04-03T06:38:05;4.30;99.90
10848;DHT22;5477;48.806;9.154;2023-04-03T06:40:36;4.30;99.90
10848;DHT22;5477;48.806;9.154;2023-04-03T06:43:05;4.30;99.90
10848;DHT22;5477;48.806;9.154;2023-04-03T06:45:34;4.30;99.90
10848;DHT22;5477;48.806;9.154;2023-04-03T06:48:05;4.30;99.90
10848;DHT22;5477;48.806;9.154;2023-04-03T06:50:33;4.30;99.90
10848;DHT22;5477;48.806;9.154;2023-04-03T06:53:01;4.30;99.90
10848;DHT22;5477;48.806;9.154;2023-04-03T06:55:30;4.30;99.90
10848;DHT22;5477;48.806;9.154;2023-04-03T06:57:58;4.30;99.90
10848;DHT22;5477;48.806;9.154;2023-04-03T07:00:27;4.30;99.90
10848;DHT22;5477;48.806;9.154;2023-04-03T07:02:55;4.30;99.90
10848;DHT22;5477;48.806;9.154;2023-04-03T07:05:25;4.30;99.90
10848;DHT22;5477;48.806;9.154;2023-04-03T07:07:53;4.30;99.90
10848;DHT22;5477;48.806;9.154;2023-04-03T07:10:21;4.30;99.90
10848;DHT22;5477;48.806;9.154;2023-04-03T07:12:49;4.40;99.90
10848;DHT22;5477;48.806;9.154;2023-04-03T07:15:17;4.50;99.90
10848;DHT22;5477;48.806;9.154;2023-04-03T07:17:46;4.50;99.90
10848;DHT22;5477;48.806;9.154;2023-04-03T07:20:14;4.60;99.90
10848;DHT22;5477;48.806;9.154;2023-04-03T07:22:43;4.60;99.90
10848;DHT22;5477;48.806;9.154;2023-04-03T07:25:12;4.70;99.90
10848;DHT22;5477;48.806;9.154;2023-04-03T07:27:40;4.70;99.90
10848;DHT22;5477;48.806;9.154;2023-04-03T07:30:08;4.80;99.90
10848;DHT22;5477;48.806;9.154;2023-04-03T07:32:37;4.90;99.90
10848;DHT22;5477;48.806;9.154;2023-04-03T07:35:05;5.00;99.90
10848;DHT22;5477;48.806;9.154;2023-04-03T07:37:33;5.00;99.90
10848;DHT22;5477;48.806;9.154;2023-04-03T07:40:03;5.00;99.90
10848;DHT22;5477;48.806;9.154;2023-04-03T07:42:32;5.00;99.90
10848;DHT22;5477;48.806;9.154;2023-04-03T07:45:00;5.00;99.90
10848;DHT22;5477;48.806;9.154;2023-04-03T07:47:28;5.00;99.90
10848;DHT22;5477;48.806;9.154;2023-04-03T07:49:56;5.00;99.90
10848;DHT22;5477;48.806;9.154;2023-04-03T07:52:25;5.10;99.90
10848;DHT22;5477;48.806;9.154;2023-04-03T07:54:53;5.20;99.90
10848;DHT22;5477;48.806;9.154;2023-04-03T07:57:22;5.20;99.90
10848;DHT22;5477;48.806;9.154;2023-04-03T07:59:50;5.10;99.90
10848;DHT22;5477;48.806;9.154;2023-04-03T08:02:18;5.00;99.90
10848;DHT22;5477;48.806;9.154;2023-04-03T08:04:46;5.10;99.90
10848;DHT22;5477;48.806;9.154;2023-04-03T08:07:14;5.10;99.90
10848;DHT22;5477;48.806;9.154;2023-04-03T08:09:43;5.10;99.90
10848;DHT22;5477;48.806;9.154;2023-04-03T08:12:11;5.10;99.90
10848;DHT22;5477;48.806;9.154;2023-04-03T08:14:42;5.10;99.90
10848;DHT22;5477;48.806;9.154;2023-04-03T08:17:10;5.20;99.90
10848;DHT22;5477;48.806;9.154;2023-04-03T08:19:39;5.20;99.90
10848;DHT22;5477;48.806;9.154;2023-04-03T08:22:08;5.20;99.90
10848;DHT22;5477;48.806;9.154;2023-04-03T08:24:36;5.20;99.90
10848;DHT22;5477;48.806;9.154;2023-04-03T08:27:11;5.20;99.90
10848;DHT22;5477;48.806;9.154;2023-04-03T08:29:39;5.40;99.90
10848;DHT22;5477;48.806;9.154;2023-04-03T08:32:08;5.60;99.90
10848;DHT22;5477;48.806;9.154;2023-04-03T08:34:37;5.70;99.90
10848;DHT22;5477;48.806;9.154;2023-04-03T08:37:06;5.60;99.90
10848;DHT22;5477;48.806;9.154;2023-04-03T08:39:34;5.80;99.90
10848;DHT22;5477;48.806;9.154;2023-04-03T08:42:05;5.90;99.90
10848;DHT22;5477;48.806;9.154;2023-04-03T08:44:42;5.90;99.90
10848;DHT22;5477;48.806;9.154;2023-04-03T08:47:22;5.90;99.90
10848;DHT22;5477;48.806;9.154;2023-04-03T08:49:53;5.90;99.90
10848;DHT22;5477;48.806;9.154;2023-04-03T08:52:27;5.90;99.90
10848;DHT22;5477;48.806;9.154;2023-04-03T08:55:02;5.90;99.90
10848;DHT22;5477;48.806;9.154;2023-04-03T08:57:33;5.90;99.90
10848;DHT22;5477;48.806;9.154;2023-04-03T09:00:05;5.90;99.90
10848;DHT22;5477;48.806;9.154;2023-04-03T09:02:42;6.00;99.90
10848;DHT22;5477;48.806;9.154;2023-04-03T09:05:16;5.90;99.90
10848;DHT22;5477;48.806;9.154;2023-04-03T09:07:46;5.80;99.90
10848;DHT22;5477;48.806;9.154;2023-04-03T09:10:22;5.80;99.90
10848;DHT22;5477;48.806;9.154;2023-04-03T09:12:58;5.80;99.90
10848;DHT22;5477;48.806;9.154;2023-04-03T09:15:27;5.90;99.90
10848;DHT22;5477;48.806;9.154;2023-04-03T09:18:13;6.00;99.90
10848;DHT22;5477;48.806;9.154;2023-04-03T09:20:46;5.90;99.90
10848;DHT22;5477;48.806;9.154;2023-04-03T09:23:22;6.00;99.90
10848;DHT22;5477;48.806;9.154;2023-04-03T09:25:56;6.00;99.90
10848;DHT22;5477;48.806;9.154;2023-04-03T09:28:25;6.00;99.90
10848;DHT22;5477;48.806;9.154;2023-04-03T09:30:56;6.00;99.90
10848;DHT22;5477;48.806;9.154;2023-04-03T09:33:26;6.00;99.90
10848;DHT22;5477;48.806;9.154;2023-04-03T09:35:55;5.90;99.90
10848;DHT22;5477;48.806;9.154;2023-04-03T09:38:23;5.90;99.90
10848;DHT22;5477;48.806;9.154;2023-04-03T09:41:04;6.00;99.90
10848;DHT22;5477;48.806;9.154;2023-04-03T09:43:33;6.00;99.90
10848;DHT22;5477;48.806;9.154;2023-04-03T09:46:25;6.00;99.90
10848;DHT22;5477;48.806;9.154;2023-04-03T09:48:58;6.00;99.90
10848;DHT22;5477;48.806;9.154;2023-04-03T09:51:36;6.20;99.90
10848;DHT22;5477;48.806;9.154;2023-04-03T09:54:25;6.20;99.90
10848;DHT22;5477;48.806;9.154;2023-04-03T09:56:54;6.30;99.90
10848;DHT22;5477;48.806;9.154;2023-04-03T09:59:23;6.40;99.90
10848;DHT22;5477;48.806;9.154;2023-04-03T10:02:00;6.30;99.90
10848;DHT22;5477;48.806;9.154;2023-04-03T10:04:39;6.40;99.90
10848;DHT22;5477;48.806;9.154;2023-04-03T10:07:28;6.40;99.90
10848;DHT22;5477;48.806;9.154;2023-04-03T10:09:57;6.30;99.90
10848;DHT22;5477;48.806;9.154;2023-04-03T10:12:25;6.40;99.90
10848;DHT22;5477;48.806;9.154;2023-04-03T10:14:56;6.30;99.90
10848;DHT22;5477;48.806;9.154;2023-04-03T10:17:35;6.30;99.90
10848;DHT22;5477;48.806;9.154;2023-04-03T10:20:21;6.30;99.90
10848;DHT22;5477;48.806;9.154;2023-04-03T10:23:00;6.40;99.90
10848;DHT22;5477;48.806;9.154;2023-04-03T10:25:32;6.50;99.90
10848;DHT22;5477;48.806;9.154;2023-04-03T10:28:06;6.70;99.90
10848;DHT22;5477;48.806;9.154;2023-04-03T10:30:44;6.80;99.90
10848;DHT22;5477;48.806;9.154;2023-04-03T10:33:32;6.90;99.90
10848;DHT22;5477;48.806;9.154;2023-04-03T10:36:09;6.70;99.90
10848;DHT22;5477;48.806;9.154;2023-04-03T10:38:46;6.70;99.90
10848;DHT22;5477;48.806;9.154;2023-04-03T10:41:22;6.60;99.90
10848;DHT22;5477;48.806;9.154;2023-04-03T10:43:56;6.70;99.90
10848;DHT22;5477;48.806;9.154;2023-04-03T10:46:28;6.60;99.90
10848;DHT22;5477;48.806;9.154;2023-04-03T10:49:19;6.50;99.90
10848;DHT22;5477;48.806;9.154;2023-04-03T10:51:57;6.40;99.90
10848;DHT22;5477;48.806;9.154;2023-04-03T10:54:32;6.50;99.90
10848;DHT22;5477;48.806;9.154;2023-04-03T10:57:03;6.50;99.90
10848;DHT22;5477;48.806;9.154;2023-04-03T10:59:42;6.50;99.90
10848;DHT22;5477;48.806;9.154;2023-04-03T11:02:17;6.50;99.90
10848;DHT22;5477;48.806;9.154;2023-04-03T11:04:49;6.50;99.90
10848;DHT22;5477;48.806;9.154;2023-04-03T11:07:22;6.50;99.90
10848;DHT22;5477;48.806;9.154;2023-04-03T11:09:55;6.60;99.90
10848;DHT22;5477;48.806;9.154;2023-04-03T11:12:28;6.60;99.90
10848;DHT22;5477;48.806;9.154;2023-04-03T11:15:02;6.60;99.90
10848;DHT22;5477;48.806;9.154;2023-04-03T11:17:33;6.70;99.90
10848;DHT22;5477;48.806;9.154;2023-04-03T11:20:13;6.80;99.90
10848;DHT22;5477;48.806;9.154;2023-04-03T11:22:48;6.80;99.70
10848;DHT22;5477;48.806;9.154;2023-04-03T11:25:20;6.90;99.90
10848;DHT22;5477;48.806;9.154;2023-04-03T11:27:54;6.80;99.40
10848;DHT22;5477;48.806;9.154;2023-04-03T11:30:27;6.80;99.70
10848;DHT22;5477;48.806;9.154;2023-04-03T11:33:09;6.70;99.40
10848;DHT22;5477;48.806;9.154;2023-04-03T11:35:43;6.60;99.40
10848;DHT22;5477;48.806;9.154;2023-04-03T11:38:19;6.60;99.90
10848;DHT22;5477;48.806;9.154;2023-04-03T11:40:49;6.50;99.90
10848;DHT22;5477;48.806;9.154;2023-04-03T11:43:23;6.50;99.90
10848;DHT22;5477;48.806;9.154;2023-04-03T11:45:55;6.50;99.90
10848;DHT22;5477;48.806;9.154;2023-04-03T11:48:49;6.60;99.90
10848;DHT22;5477;48.806;9.154;2023-04-03T11:51:42;6.80;99.90
10848;DHT22;5477;48.806;9.154;2023-04-03T11:54:42;6.90;99.90
10848;DHT22;5477;48.806;9.154;2023-04-03T11:57:49;7.10;99.90
10848;DHT22;5477;48.806;9.154;2023-04-03T12:10:19;7.10;98.80
10848;DHT22;5477;48.806;9.154;2023-04-03T12:13:00;7.00;98.60
10848;DHT22;5477;48.806;9.154;2023-04-03T12:15:54;7.10;99.00
10848;DHT22;5477;48.806;9.154;2023-04-03T12:18:55;7.20;99.10
10848;DHT22;5477;48.806;9.154;2023-04-03T12:21:24;7.10;98.60
10848;DHT22;5477;48.806;9.154;2023-04-03T12:24:27;7.00;98.60
10848;DHT22;5477;48.806;9.154;2023-04-03T12:27:07;7.10;98.00
10848;DHT22;5477;48.806;9.154;2023-04-03T12:29:39;7.00;97.40
10848;DHT22;5477;48.806;9.154;2023-04-03T12:32:18;7.10;97.40
10848;DHT22;5477;48.806;9.154;2023-04-03T12:35:01;7.20;97.50
10848;DHT22;5477;48.806;9.154;2023-04-03T12:37:57;7.30;97.00
10848;DHT22;5477;48.806;9.154;2023-04-03T12:40:34;7.30;96.80
10848;DHT22;5477;48.806;9.154;2023-04-03T12:43:25;7.20;97.20
10848;DHT22;5477;48.806;9.154;2023-04-03T12:46:03;7.30;97.00
10848;DHT22;5477;48.806;9.154;2023-04-03T12:48:38;7.30;97.00
10848;DHT22;5477;48.806;9.154;2023-04-03T12:51:07;7.30;97.50
10848;DHT22;5477;48.806;9.154;2023-04-03T12:53:36;7.30;97.50
10848;DHT22;5477;48.806;9.154;2023-04-03T12:56:22;7.20;97.50
10848;DHT22;5477;48.806;9.154;2023-04-03T12:58:54;7.20;97.30
10848;DHT22;5477;48.806;9.154;2023-04-03T13:01:23;7.10;97.10
10848;DHT22;5477;48.806;9.154;2023-04-03T13:03:54;7.00;97.20
10848;DHT22;5477;48.806;9.154;2023-04-03T13:06:24;7.10;97.40
10848;DHT22;5477;48.806;9.154;2023-04-03T13:08:55;7.20;97.60
10848;DHT22;5477;48.806;9.154;2023-04-03T13:11:26;7.20;96.40
10848;DHT22;5477;48.806;9.154;2023-04-03T13:13:58;7.20;96.80
10848;DHT22;5477;48.806;9.154;2023-04-03T13:16:26;7.30;96.40
10848;DHT22;5477;48.806;9.154;2023-04-03T13:18:55;7.30;96.40
10848;DHT22;5477;48.806;9.154;2023-04-03T13:21:25;7.50;96.10
10848;DHT22;5477;48.806;9.154;2023-04-03T13:23:57;7.60;95.50
10848;DHT22;5477;48.806;9.154;2023-04-03T13:26:41;7.60;95.50
10848;DHT22;5477;48.806;9.154;2023-04-03T13:29:21;7.60;96.00
10848;DHT22;5477;48.806;9.154;2023-04-03T13:31:57;7.60;96.30
10848;DHT22;5477;48.806;9.154;2023-04-03T13:34:29;7.70;96.10
10848;DHT22;5477;48.806;9.154;2023-04-03T13:37:00;7.70;95.60
10848;DHT22;5477;48.806;9.154;2023-04-03T13:39:32;7.50;95.20
10848;DHT22;5477;48.806;9.154;2023-04-03T13:42:02;7.50;94.70
10848;DHT22;5477;48.806;9.154;2023-04-03T13:44:43;7.50;94.70
10848;DHT22;5477;48.806;9.154;2023-04-03T13:47:18;7.60;95.40
10848;DHT22;5477;48.806;9.154;2023-04-03T13:49:59;7.60;93.20
10848;DHT22;5477;48.806;9.154;2023-04-03T13:52:30;7.60;92.70
10848;DHT22;5477;48.806;9.154;2023-04-03T13:55:16;7.70;92.30
10848;DHT22;5477;48.806;9.154;2023-04-03T13:57:54;8.00;92.00
10848;DHT22;5477;48.806;9.154;2023-04-03T14:00:34;8.10;91.30
10848;DHT22;5477;48.806;9.154;2023-04-03T14:03:12;8.20;90.80
10848;DHT22;5477;48.806;9.154;2023-04-03T14:05:40;8.30;91.10
10848;DHT22;5477;48.806;9.154;2023-04-03T14:08:08;8.10;91.30
10848;DHT22;5477;48.806;9.154;2023-04-03T14:10:37;7.90;91.80
10848;DHT22;5477;48.806;9.154;2023-04-03T14:13:05;7.70;92.10
10848;DHT22;5477;48.806;9.154;2023-04-03T14:15:35;7.60;92.40
10848;DHT22;5477;48.806;9.154;2023-04-03T14:18:03;7.70;92.80
10848;DHT22;5477;48.806;9.154;2023-04-03T14:20:33;7.70;92.90
10848;DHT22;5477;48.806;9.154;2023-04-03T14:23:02;7.60;92.50
10848;DHT22;5477;48.806;9.154;2023-04-03T14:25:30;7.60;93.10
10848;DHT22;5477;48.806;9.154;2023-04-03T14:27:58;7.60;92.70
10848;DHT22;5477;48.806;9.154;2023-04-03T14:30:29;7.50;91.90
10848;DHT22;5477;48.806;9.154;2023-04-03T14:32:59;7.50;92.10
10848;DHT22;5477;48.806;9.154;2023-04-03T14:35:28;7.60;91.70
10848;DHT22;5477;48.806;9.154;2023-04-03T14:37:57;7.70;91.70
10848;DHT22;5477;48.806;9.154;2023-04-03T14:40:26;7.80;91.40
10848;DHT22;5477;48.806;9.154;2023-04-03T14:42:54;7.80;91.00
10848;DHT22;5477;48.806;9.154;2023-04-03T14:45:24;7.80;90.30
10848;DHT22;5477;48.806;9.154;2023-04-03T14:47:54;7.80;90.60
10848;DHT22;5477;48.806;9.154;2023-04-03T14:50:27;8.40;90.30
10848;DHT22;5477;48.806;9.154;2023-04-03T14:52:57;8.70;88.60
10848;DHT22;5477;48.806;9.154;2023-04-03T14:55:26;9.40;86.80
10848;DHT22;5477;48.806;9.154;2023-04-03T14:57:54;9.50;84.30
10848;DHT22;5477;48.806;9.154;2023-04-03T15:00:22;9.30;84.20
10848;DHT22;5477;48.806;9.154;2023-04-03T15:02:51;8.80;85.20
10848;DHT22;5477;48.806;9.154;2023-04-03T15:05:19;8.60;85.90
10848;DHT22;5477;48.806;9.154;2023-04-03T15:07:50;8.40;86.70
10848;DHT22;5477;48.806;9.154;2023-04-03T15:10:21;8.30;85.60
10848;DHT22;5477;48.806;9.154;2023-04-03T15:12:50;8.40;85.70
10848;DHT22;5477;48.806;9.154;2023-04-03T15:15:20;8.20;85.50
10848;DHT22;5477;48.806;9.154;2023-04-03T15:17:52;8.10;85.80
10848;DHT22;5477;48.806;9.154;2023-04-03T15:20:23;8.00;86.30
10848;DHT22;5477;48.806;9.154;2023-04-03T15:22:53;7.90;86.20
10848;DHT22;5477;48.806;9.154;2023-04-03T15:25:23;8.00;87.90
10848;DHT22;5477;48.806;9.154;2023-04-03T15:27:52;8.50;85.90
10848;DHT22;5477;48.806;9.154;2023-04-03T15:30:21;8.80;84.80
10848;DHT22;5477;48.806;9.154;2023-04-03T15:32:49;9.40;84.20
10848;DHT22;5477;48.806;9.154;2023-04-03T15:35:17;10.20;80.00
10848;DHT22;5477;48.806;9.154;2023-04-03T15:37:45;10.20;76.60
10848;DHT22;5477;48.806;9.154;2023-04-03T15:40:16;9.50;78.00
10848;DHT22;5477;48.806;9.154;2023-04-03T15:42:44;8.90;79.30
10848;DHT22;5477;48.806;9.154;2023-04-03T15:45:12;8.60;81.80
10848;DHT22;5477;48.806;9.154;2023-04-03T15:47:40;8.90;80.70
10848;DHT22;5477;48.806;9.154;2023-04-03T15:50:09;9.10;80.80
10848;DHT22;5477;48.806;9.154;2023-04-03T15:52:38;9.40;79.00
10848;DHT22;5477;48.806;9.154;2023-04-03T15:55:06;9.80;76.90
10848;DHT22;5477;48.806;9.154;2023-04-03T15:57:35;9.90;74.40
10848;DHT22;5477;48.806;9.154;2023-04-03T16:00:10;9.70;73.40
10848;DHT22;5477;48.806;9.154;2023-04-03T16:02:38;9.20;73.60
10848;DHT22;5477;48.806;9.154;2023-04-03T16:05:07;8.80;75.30
10848;DHT22;5477;48.806;9.154;2023-04-03T16:07:37;8.60;76.60
10848;DHT22;5477;48.806;9.154;2023-04-03T16:10:06;8.40;78.00
10848;DHT22;5477;48.806;9.154;2023-04-03T16:12:36;8.20;77.90
10848;DHT22;5477;48.806;9.154;2023-04-03T16:15:05;8.10;78.60
10848;DHT22;5477;48.806;9.154;2023-04-03T16:17:34;7.90;79.80
10848;DHT22;5477;48.806;9.154;2023-04-03T16:20:05;8.00;80.40
10848;DHT22;5477;48.806;9.154;2023-04-03T16:22:34;8.00;81.80
10848;DHT22;5477;48.806;9.154;2023-04-03T16:25:03;7.90;82.20
10848;DHT22;5477;48.806;9.154;2023-04-03T16:27:31;7.80;82.80
10848;DHT22;5477;48.806;9.154;2023-04-03T16:30:00;7.60;81.50
10848;DHT22;5477;48.806;9.154;2023-04-03T16:32:30;7.50;81.40
10848;DHT22;5477;48.806;9.154;2023-04-03T16:34:59;7.40;82.60
10848;DHT22;5477;48.806;9.154;2023-04-03T16:37:33;7.30;84.50
10848;DHT22;5477;48.806;9.154;2023-04-03T16:40:02;7.30;84.60